sensor_id;sensor_type;location;lat;lon;timestamp;P1;durP1;ratioP1;P2;durP2;ratioP2
55641;SDS011;41509;53.108;6.100;2022-07-23T00:00:33;5.55;;;2.55;;
55641;SDS011;41509;53.108;6.100;2022-07-23T00:02:59;4.10;;;2.30;;
55641;SDS011;41509;53.108;6.100;2022-07-23T00:05:24;4.25;;;2.20;;
55641;SDS011;41509;53.108;6.100;2022-07-23T00:07:50;4.07;;;2.30;;
55641;SDS011;41509;53.108;6.100;2022-07-23T00:10:16;3.85;;;2.00;;
55641;SDS011;41509;53.108;6.100;2022-07-23T00:12:42;4.57;;;2.20;;
55641;SDS011;41509;53.108;6.100;2022-07-23T00:15:10;5.28;;;2.17;;
55641;SDS011;41509;53.108;6.100;2022-07-23T00:17:35;4.03;;;2.22;;
55641;SDS011;41509;53.108;6.100;2022-07-23T00:20:01;5.03;;;2.30;;
55641;SDS011;41509;53.108;6.100;2022-07-23T00:24:54;4.35;;;2.30;;
55641;SDS011;41509;53.108;6.100;2022-07-23T00:27:20;5.15;;;1.90;;
55641;SDS011;41509;53.108;6.100;2022-07-23T00:29:46;3.47;;;2.35;;
55641;SDS011;41509;53.108;6.100;2022-07-23T00:32:12;6.25;;;2.10;;
55641;SDS011;41509;53.108;6.100;2022-07-23T00:34:38;3.45;;;1.98;;
55641;SDS011;41509;53.108;6.100;2022-07-23T00:37:03;4.35;;;1.92;;
55641;SDS011;41509;53.108;6.100;2022-07-23T00:39:29;3.45;;;2.10;;
55641;SDS011;41509;53.108;6.100;2022-07-23T00:41:55;4.95;;;2.40;;
55641;SDS011;41509;53.108;6.100;2022-07-23T00:44:21;6.10;;;2.42;;
55641;SDS011;41509;53.108;6.100;2022-07-23T00:46:52;4.35;;;2.38;;
55641;SDS011;41509;53.108;6.100;2022-07-23T00:49:27;4.22;;;2.15;;
55641;SDS011;41509;53.108;6.100;2022-07-23T00:51:54;3.55;;;2.25;;
55641;SDS011;41509;53.108;6.100;2022-07-23T00:54:24;6.85;;;2.25;;
55641;SDS011;41509;53.108;6.100;2022-07-23T00:56:51;3.53;;;1.83;;
55641;SDS011;41509;53.108;6.100;2022-07-23T01:01:43;4.10;;;2.22;;
55641;SDS011;41509;53.108;6.100;2022-07-23T01:04:10;5.82;;;1.88;;
55641;SDS011;41509;53.108;6.100;2022-07-23T01:06:40;4.45;;;2.10;;
55641;SDS011;41509;53.108;6.100;2022-07-23T01:09:06;3.25;;;1.80;;
55641;SDS011;41509;53.108;6.100;2022-07-23T01:11:33;3.80;;;1.95;;
55641;SDS011;41509;53.108;6.100;2022-07-23T01:14:07;4.05;;;2.05;;
55641;SDS011;41509;53.108;6.100;2022-07-23T01:16:37;8.85;;;2.80;;
55641;SDS011;41509;53.108;6.100;2022-07-23T01:19:03;4.70;;;2.25;;
55641;SDS011;41509;53.108;6.100;2022-07-23T01:21:31;7.95;;;1.90;;
55641;SDS011;41509;53.108;6.100;2022-07-23T01:24:06;4.30;;;2.15;;
55641;SDS011;41509;53.108;6.100;2022-07-23T01:26:32;5.53;;;2.20;;
55641;SDS011;41509;53.108;6.100;2022-07-23T01:28:58;5.78;;;2.35;;
55641;SDS011;41509;53.108;6.100;2022-07-23T01:31:24;3.60;;;2.10;;
55641;SDS011;41509;53.108;6.100;2022-07-23T01:33:50;5.85;;;2.45;;
55641;SDS011;41509;53.108;6.100;2022-07-23T01:36:16;3.08;;;1.85;;
55641;SDS011;41509;53.108;6.100;2022-07-23T01:38:42;3.65;;;2.35;;
55641;SDS011;41509;53.108;6.100;2022-07-23T01:41:07;5.07;;;2.25;;
55641;SDS011;41509;53.108;6.100;2022-07-23T01:43:33;6.85;;;1.92;;
55641;SDS011;41509;53.108;6.100;2022-07-23T01:45:59;4.35;;;2.15;;
55641;SDS011;41509;53.108;6.100;2022-07-23T01:48:24;3.20;;;2.05;;
55641;SDS011;41509;53.108;6.100;2022-07-23T01:50:50;4.82;;;1.85;;
55641;SDS011;41509;53.108;6.100;2022-07-23T01:53:16;5.68;;;2.40;;
55641;SDS011;41509;53.108;6.100;2022-07-23T01:55:42;4.38;;;2.00;;
55641;SDS011;41509;53.108;6.100;2022-07-23T01:58:08;5.57;;;2.10;;
55641;SDS011;41509;53.108;6.100;2022-07-23T02:00:34;3.95;;;2.13;;
55641;SDS011;41509;53.108;6.100;2022-07-23T02:02:59;4.47;;;2.05;;
55641;SDS011;41509;53.108;6.100;2022-07-23T02:05:26;4.10;;;1.92;;
55641;SDS011;41509;53.108;6.100;2022-07-23T02:07:53;3.58;;;1.92;;
55641;SDS011;41509;53.108;6.100;2022-07-23T02:10:20;3.95;;;2.00;;
55641;SDS011;41509;53.108;6.100;2022-07-23T02:12:47;3.88;;;2.25;;
55641;SDS011;41509;53.108;6.100;2022-07-23T02:15:13;3.50;;;2.00;;
55641;SDS011;41509;53.108;6.100;2022-07-23T02:17:39;4.47;;;2.35;;
55641;SDS011;41509;53.108;6.100;2022-07-23T02:20:06;5.20;;;2.30;;
55641;SDS011;41509;53.108;6.100;2022-07-23T02:22:33;6.93;;;2.95;;
55641;SDS011;41509;53.108;6.100;2022-07-23T02:24:59;4.00;;;2.10;;
55641;SDS011;41509;53.108;6.100;2022-07-23T02:27:24;4.68;;;2.15;;
55641;SDS011;41509;53.108;6.100;2022-07-23T02:29:50;5.97;;;2.35;;
55641;SDS011;41509;53.108;6.100;2022-07-23T02:32:16;5.68;;;2.65;;
55641;SDS011;41509;53.108;6.100;2022-07-23T02:34:41;5.45;;;2.72;;
55641;SDS011;41509;53.108;6.100;2022-07-23T02:37:07;3.80;;;2.20;;
55641;SDS011;41509;53.108;6.100;2022-07-23T02:39:34;4.45;;;2.20;;
55641;SDS011;41509;53.108;6.100;2022-07-23T02:42:00;4.32;;;2.47;;
55641;SDS011;41509;53.108;6.100;2022-07-23T02:44:26;4.57;;;2.65;;
55641;SDS011;41509;53.108;6.100;2022-07-23T02:46:52;5.63;;;2.20;;
55641;SDS011;41509;53.108;6.100;2022-07-23T02:49:18;3.85;;;2.03;;
55641;SDS011;41509;53.108;6.100;2022-07-23T02:51:44;6.70;;;2.42;;
55641;SDS011;41509;53.108;6.100;2022-07-23T02:54:10;6.90;;;2.42;;
55641;SDS011;41509;53.108;6.100;2022-07-23T02:56:35;4.82;;;2.50;;
55641;SDS011;41509;53.108;6.100;2022-07-23T02:59:01;4.43;;;2.60;;
55641;SDS011;41509;53.108;6.100;2022-07-23T03:01:27;4.88;;;2.53;;
55641;SDS011;41509;53.108;6.100;2022-07-23T03:03:52;5.47;;;2.88;;
55641;SDS011;41509;53.108;6.100;2022-07-23T03:06:18;7.18;;;3.17;;
55641;SDS011;41509;53.108;6.100;2022-07-23T03:08:44;5.07;;;2.78;;
55641;SDS011;41509;53.108;6.100;2022-07-23T03:11:10;5.70;;;2.83;;
55641;SDS011;41509;53.108;6.100;2022-07-23T03:13:36;3.50;;;2.05;;
55641;SDS011;41509;53.108;6.100;2022-07-23T03:16:03;5.15;;;2.70;;
55641;SDS011;41509;53.108;6.100;2022-07-23T03:20:55;5.22;;;2.30;;
55641;SDS011;41509;53.108;6.100;2022-07-23T03:23:21;6.38;;;2.63;;
55641;SDS011;41509;53.108;6.100;2022-07-23T03:25:46;4.00;;;2.47;;
55641;SDS011;41509;53.108;6.100;2022-07-23T03:28:15;3.67;;;2.58;;
55641;SDS011;41509;53.108;6.100;2022-07-23T03:30:43;4.78;;;2.70;;
55641;SDS011;41509;53.108;6.100;2022-07-23T03:33:12;6.75;;;2.83;;
55641;SDS011;41509;53.108;6.100;2022-07-23T03:35:39;3.45;;;2.35;;
55641;SDS011;41509;53.108;6.100;2022-07-23T03:38:04;6.75;;;2.70;;
55641;SDS011;41509;53.108;6.100;2022-07-23T03:40:30;5.53;;;2.90;;
55641;SDS011;41509;53.108;6.100;2022-07-23T03:42:56;3.95;;;2.15;;
55641;SDS011;41509;53.108;6.100;2022-07-23T03:45:22;4.45;;;2.42;;
55641;SDS011;41509;53.108;6.100;2022-07-23T03:47:48;4.60;;;2.80;;
55641;SDS011;41509;53.108;6.100;2022-07-23T03:50:14;4.57;;;2.50;;
55641;SDS011;41509;53.108;6.100;2022-07-23T03:52:40;3.70;;;2.40;;
55641;SDS011;41509;53.108;6.100;2022-07-23T03:55:06;4.03;;;2.35;;
55641;SDS011;41509;53.108;6.100;2022-07-23T03:57:32;4.55;;;2.55;;
55641;SDS011;41509;53.108;6.100;2022-07-23T03:59:58;4.78;;;2.53;;
55641;SDS011;41509;53.108;6.100;2022-07-23T04:02:24;5.97;;;2.85;;
55641;SDS011;41509;53.108;6.100;2022-07-23T04:04:50;4.53;;;2.45;;
55641;SDS011;41509;53.108;6.100;2022-07-23T04:07:16;5.60;;;2.42;;
55641;SDS011;41509;53.108;6.100;2022-07-23T04:09:43;5.82;;;2.75;;
55641;SDS011;41509;53.108;6.100;2022-07-23T04:12:09;5.18;;;2.47;;
55641;SDS011;41509;53.108;6.100;2022-07-23T04:14:35;8.23;;;2.50;;
55641;SDS011;41509;53.108;6.100;2022-07-23T04:17:01;5.57;;;2.83;;
55641;SDS011;41509;53.108;6.100;2022-07-23T04:19:27;4.00;;;2.17;;
55641;SDS011;41509;53.108;6.100;2022-07-23T04:21:53;4.97;;;2.72;;
55641;SDS011;41509;53.108;6.100;2022-07-23T04:24:18;9.73;;;2.63;;
55641;SDS011;41509;53.108;6.100;2022-07-23T04:26:44;4.95;;;2.45;;
55641;SDS011;41509;53.108;6.100;2022-07-23T04:29:10;5.53;;;2.42;;
55641;SDS011;41509;53.108;6.100;2022-07-23T04:31:36;6.22;;;2.35;;
55641;SDS011;41509;53.108;6.100;2022-07-23T04:34:02;5.50;;;2.67;;
55641;SDS011;41509;53.108;6.100;2022-07-23T04:36:27;3.97;;;2.35;;
55641;SDS011;41509;53.108;6.100;2022-07-23T04:38:53;7.30;;;3.03;;
55641;SDS011;41509;53.108;6.100;2022-07-23T04:43:45;8.73;;;2.85;;
55641;SDS011;41509;53.108;6.100;2022-07-23T04:46:11;5.55;;;2.78;;
55641;SDS011;41509;53.108;6.100;2022-07-23T04:48:37;5.63;;;3.30;;
55641;SDS011;41509;53.108;6.100;2022-07-23T04:51:07;8.18;;;3.40;;
55641;SDS011;41509;53.108;6.100;2022-07-23T04:53:33;5.53;;;3.00;;
55641;SDS011;41509;53.108;6.100;2022-07-23T04:55:58;4.47;;;2.53;;
55641;SDS011;41509;53.108;6.100;2022-07-23T04:58:24;5.78;;;2.90;;
55641;SDS011;41509;53.108;6.100;2022-07-23T05:00:50;8.20;;;3.00;;
55641;SDS011;41509;53.108;6.100;2022-07-23T05:03:16;4.85;;;3.03;;
55641;SDS011;41509;53.108;6.100;2022-07-23T05:05:42;5.60;;;2.80;;
55641;SDS011;41509;53.108;6.100;2022-07-23T05:08:08;8.25;;;3.10;;
55641;SDS011;41509;53.108;6.100;2022-07-23T05:10:33;4.32;;;2.47;;
55641;SDS011;41509;53.108;6.100;2022-07-23T05:12:59;4.63;;;2.50;;
55641;SDS011;41509;53.108;6.100;2022-07-23T05:15:25;4.72;;;2.70;;
55641;SDS011;41509;53.108;6.100;2022-07-23T05:17:51;5.00;;;2.80;;
55641;SDS011;41509;53.108;6.100;2022-07-23T05:20:17;3.25;;;1.98;;
55641;SDS011;41509;53.108;6.100;2022-07-23T05:22:43;3.22;;;2.10;;
55641;SDS011;41509;53.108;6.100;2022-07-23T05:25:08;4.05;;;2.50;;
55641;SDS011;41509;53.108;6.100;2022-07-23T05:27:34;5.25;;;2.17;;
55641;SDS011;41509;53.108;6.100;2022-07-23T05:30:00;5.13;;;2.85;;
55641;SDS011;41509;53.108;6.100;2022-07-23T05:32:26;4.03;;;2.20;;
55641;SDS011;41509;53.108;6.100;2022-07-23T05:34:52;6.55;;;2.80;;
55641;SDS011;41509;53.108;6.100;2022-07-23T05:37:17;7.65;;;2.33;;
55641;SDS011;41509;53.108;6.100;2022-07-23T05:39:43;5.03;;;2.42;;
55641;SDS011;41509;53.108;6.100;2022-07-23T05:42:09;4.03;;;2.10;;
55641;SDS011;41509;53.108;6.100;2022-07-23T05:44:34;5.50;;;2.33;;
55641;SDS011;41509;53.108;6.100;2022-07-23T05:47:00;4.40;;;2.00;;
55641;SDS011;41509;53.108;6.100;2022-07-23T05:51:52;3.05;;;1.70;;
55641;SDS011;41509;53.108;6.100;2022-07-23T05:54:17;3.23;;;1.03;;
55641;SDS011;41509;53.108;6.100;2022-07-23T05:56:43;3.13;;;1.10;;
55641;SDS011;41509;53.108;6.100;2022-07-23T05:59:09;2.17;;;1.08;;
55641;SDS011;41509;53.108;6.100;2022-07-23T06:01:37;5.90;;;1.38;;
55641;SDS011;41509;53.108;6.100;2022-07-23T06:04:02;2.03;;;1.08;;
55641;SDS011;41509;53.108;6.100;2022-07-23T06:06:28;1.65;;;0.90;;
55641;SDS011;41509;53.108;6.100;2022-07-23T06:08:54;3.30;;;0.90;;
55641;SDS011;41509;53.108;6.100;2022-07-23T06:11:20;5.40;;;1.20;;
55641;SDS011;41509;53.108;6.100;2022-07-23T06:13:45;1.30;;;0.80;;
55641;SDS011;41509;53.108;6.100;2022-07-23T06:16:14;1.95;;;1.00;;
55641;SDS011;41509;53.108;6.100;2022-07-23T06:18:39;2.47;;;1.00;;
55641;SDS011;41509;53.108;6.100;2022-07-23T06:21:05;1.17;;;0.80;;
55641;SDS011;41509;53.108;6.100;2022-07-23T06:23:31;3.97;;;0.95;;
55641;SDS011;41509;53.108;6.100;2022-07-23T06:25:57;1.10;;;0.47;;
55641;SDS011;41509;53.108;6.100;2022-07-23T06:28:22;1.95;;;0.75;;
55641;SDS011;41509;53.108;6.100;2022-07-23T06:30:48;1.38;;;0.80;;
55641;SDS011;41509;53.108;6.100;2022-07-23T06:33:14;4.93;;;0.70;;
55641;SDS011;41509;53.108;6.100;2022-07-23T06:35:39;2.13;;;0.70;;
55641;SDS011;41509;53.108;6.100;2022-07-23T06:38:06;1.13;;;0.60;;
55641;SDS011;41509;53.108;6.100;2022-07-23T06:40:31;2.75;;;0.60;;
55641;SDS011;41509;53.108;6.100;2022-07-23T06:42:57;1.50;;;0.50;;
55641;SDS011;41509;53.108;6.100;2022-07-23T06:45:30;1.88;;;0.73;;
55641;SDS011;41509;53.108;6.100;2022-07-23T06:48:01;1.20;;;0.63;;
55641;SDS011;41509;53.108;6.100;2022-07-23T06:50:39;1.08;;;0.50;;
55641;SDS011;41509;53.108;6.100;2022-07-23T06:53:13;1.33;;;0.43;;
55641;SDS011;41509;53.108;6.100;2022-07-23T06:55:39;2.28;;;0.60;;
55641;SDS011;41509;53.108;6.100;2022-07-23T06:58:05;1.73;;;0.50;;
55641;SDS011;41509;53.108;6.100;2022-07-23T07:00:30;1.00;;;0.40;;
55641;SDS011;41509;53.108;6.100;2022-07-23T07:02:59;0.65;;;0.20;;
55641;SDS011;41509;53.108;6.100;2022-07-23T07:05:25;2.53;;;0.35;;
55641;SDS011;41509;53.108;6.100;2022-07-23T07:07:53;2.25;;;0.40;;
55641;SDS011;41509;53.108;6.100;2022-07-23T07:10:21;0.90;;;0.28;;
55641;SDS011;41509;53.108;6.100;2022-07-23T07:12:47;0.55;;;0.30;;
55641;SDS011;41509;53.108;6.100;2022-07-23T07:15:13;1.30;;;0.40;;
55641;SDS011;41509;53.108;6.100;2022-07-23T07:17:39;0.32;;;0.20;;
55641;SDS011;41509;53.108;6.100;2022-07-23T07:20:05;1.65;;;0.57;;
55641;SDS011;41509;53.108;6.100;2022-07-23T07:24:57;0.30;;;0.20;;
55641;SDS011;41509;53.108;6.100;2022-07-23T07:27:22;0.82;;;0.30;;
55641;SDS011;41509;53.108;6.100;2022-07-23T07:29:48;0.35;;;0.17;;
55641;SDS011;41509;53.108;6.100;2022-07-23T07:32:14;0.52;;;0.20;;
55641;SDS011;41509;53.108;6.100;2022-07-23T07:34:39;1.33;;;0.20;;
55641;SDS011;41509;53.108;6.100;2022-07-23T07:37:05;0.38;;;0.20;;
55641;SDS011;41509;53.108;6.100;2022-07-23T07:39:31;1.02;;;0.25;;
55641;SDS011;41509;53.108;6.100;2022-07-23T07:41:56;0.68;;;0.20;;
55641;SDS011;41509;53.108;6.100;2022-07-23T07:44:22;1.52;;;0.50;;
55641;SDS011;41509;53.108;6.100;2022-07-23T07:46:47;0.73;;;0.32;;
55641;SDS011;41509;53.108;6.100;2022-07-23T07:49:13;0.70;;;0.30;;
55641;SDS011;41509;53.108;6.100;2022-07-23T07:51:39;0.30;;;0.30;;
55641;SDS011;41509;53.108;6.100;2022-07-23T07:54:05;1.65;;;0.47;;
55641;SDS011;41509;53.108;6.100;2022-07-23T07:56:30;0.30;;;0.17;;
55641;SDS011;41509;53.108;6.100;2022-07-23T07:58:56;0.40;;;0.22;;
55641;SDS011;41509;53.108;6.100;2022-07-23T08:01:22;0.95;;;0.30;;
55641;SDS011;41509;53.108;6.100;2022-07-23T08:03:48;0.70;;;0.20;;
55641;SDS011;41509;53.108;6.100;2022-07-23T08:06:13;1.67;;;0.63;;
55641;SDS011;41509;53.108;6.100;2022-07-23T08:08:39;1.02;;;0.65;;
55641;SDS011;41509;53.108;6.100;2022-07-23T08:11:05;0.85;;;0.30;;
55641;SDS011;41509;53.108;6.100;2022-07-23T08:13:30;0.30;;;0.20;;
55641;SDS011;41509;53.108;6.100;2022-07-23T08:15:56;1.42;;;0.30;;
55641;SDS011;41509;53.108;6.100;2022-07-23T08:18:22;1.90;;;0.30;;
55641;SDS011;41509;53.108;6.100;2022-07-23T08:20:47;0.40;;;0.17;;
55641;SDS011;41509;53.108;6.100;2022-07-23T08:23:13;1.63;;;0.30;;
55641;SDS011;41509;53.108;6.100;2022-07-23T08:25:40;0.75;;;0.40;;
55641;SDS011;41509;53.108;6.100;2022-07-23T08:28:08;1.48;;;0.30;;
55641;SDS011;41509;53.108;6.100;2022-07-23T08:30:36;0.88;;;0.35;;
55641;SDS011;41509;53.108;6.100;2022-07-23T08:33:04;0.88;;;0.30;;
55641;SDS011;41509;53.108;6.100;2022-07-23T08:35:33;0.70;;;0.38;;
55641;SDS011;41509;53.108;6.100;2022-07-23T08:38:03;1.55;;;0.32;;
55641;SDS011;41509;53.108;6.100;2022-07-23T08:40:34;0.30;;;0.20;;
55641;SDS011;41509;53.108;6.100;2022-07-23T08:43:04;0.65;;;0.28;;
55641;SDS011;41509;53.108;6.100;2022-07-23T08:45:32;1.33;;;0.35;;
55641;SDS011;41509;53.108;6.100;2022-07-23T08:48:02;0.30;;;0.13;;
55641;SDS011;41509;53.108;6.100;2022-07-23T08:50:29;1.25;;;0.20;;
55641;SDS011;41509;53.108;6.100;2022-07-23T08:52:57;0.35;;;0.22;;
55641;SDS011;41509;53.108;6.100;2022-07-23T08:55:25;0.85;;;0.30;;
55641;SDS011;41509;53.108;6.100;2022-07-23T08:57:51;0.88;;;0.30;;
55641;SDS011;41509;53.108;6.100;2022-07-23T09:00:18;0.63;;;0.30;;
55641;SDS011;41509;53.108;6.100;2022-07-23T09:02:45;0.45;;;0.30;;
55641;SDS011;41509;53.108;6.100;2022-07-23T09:05:13;1.33;;;0.20;;
55641;SDS011;41509;53.108;6.100;2022-07-23T09:10:36;0.98;;;0.30;;
55641;SDS011;41509;53.108;6.100;2022-07-23T09:13:29;2.13;;;0.30;;
55641;SDS011;41509;53.108;6.100;2022-07-23T09:15:56;1.35;;;0.40;;
55641;SDS011;41509;53.108;6.100;2022-07-23T09:18:39;0.32;;;0.20;;
55641;SDS011;41509;53.108;6.100;2022-07-23T09:28:58;0.95;;;0.50;;
55641;SDS011;41509;53.108;6.100;2022-07-23T09:32:13;0.65;;;0.30;;
55641;SDS011;41509;53.108;6.100;2022-07-23T09:36:50;2.17;;;0.40;;
55641;SDS011;41509;53.108;6.100;2022-07-23T09:39:28;2.20;;;0.43;;
55641;SDS011;41509;53.108;6.100;2022-07-23T09:41:55;1.30;;;0.60;;
55641;SDS011;41509;53.108;6.100;2022-07-23T09:44:22;1.38;;;0.50;;
55641;SDS011;41509;53.108;6.100;2022-07-23T09:46:49;1.70;;;0.43;;
55641;SDS011;41509;53.108;6.100;2022-07-23T09:49:22;2.78;;;0.50;;
55641;SDS011;41509;53.108;6.100;2022-07-23T09:51:55;3.13;;;0.50;;
55641;SDS011;41509;53.108;6.100;2022-07-23T09:57:03;0.70;;;0.40;;
55641;SDS011;41509;53.108;6.100;2022-07-23T09:59:33;1.17;;;0.30;;
55641;SDS011;41509;53.108;6.100;2022-07-23T10:02:00;0.52;;;0.38;;
55641;SDS011;41509;53.108;6.100;2022-07-23T10:04:27;0.95;;;0.40;;
55641;SDS011;41509;53.108;6.100;2022-07-23T10:06:55;0.50;;;0.40;;
55641;SDS011;41509;53.108;6.100;2022-07-23T10:09:27;1.20;;;0.45;;
55641;SDS011;41509;53.108;6.100;2022-07-23T10:11:55;1.80;;;0.57;;
55641;SDS011;41509;53.108;6.100;2022-07-23T10:14:42;2.35;;;0.60;;
55641;SDS011;41509;53.108;6.100;2022-07-23T10:19:34;1.98;;;0.73;;
55641;SDS011;41509;53.108;6.100;2022-07-23T10:41:06;1.00;;;0.35;;
55641;SDS011;41509;53.108;6.100;2022-07-23T10:57:46;1.65;;;0.88;;
55641;SDS011;41509;53.108;6.100;2022-07-23T11:00:14;1.13;;;0.70;;
55641;SDS011;41509;53.108;6.100;2022-07-23T11:02:42;1.38;;;0.60;;
55641;SDS011;41509;53.108;6.100;2022-07-23T11:05:19;5.40;;;0.90;;
55641;SDS011;41509;53.108;6.100;2022-07-23T11:11:13;2.05;;;0.70;;
55641;SDS011;41509;53.108;6.100;2022-07-23T11:13:29;1.05;;;0.70;;
55641;SDS011;41509;53.108;6.100;2022-07-23T11:34:43;1.50;;;0.70;;
55641;SDS011;41509;53.108;6.100;2022-07-23T11:40:00;0.80;;;0.60;;
55641;SDS011;41509;53.108;6.100;2022-07-23T11:42:27;1.38;;;0.60;;
55641;SDS011;41509;53.108;6.100;2022-07-23T11:44:53;2.42;;;0.98;;
55641;SDS011;41509;53.108;6.100;2022-07-23T11:47:23;0.90;;;0.45;;
55641;SDS011;41509;53.108;6.100;2022-07-23T11:49:57;2.22;;;1.15;;
55641;SDS011;41509;53.108;6.100;2022-07-23T11:52:27;1.05;;;0.65;;
55641;SDS011;41509;53.108;6.100;2022-07-23T11:55:01;1.60;;;0.82;;
55641;SDS011;41509;53.108;6.100;2022-07-23T11:57:39;3.03;;;0.90;;
55641;SDS011;41509;53.108;6.100;2022-07-23T12:00:09;1.23;;;0.70;;
55641;SDS011;41509;53.108;6.100;2022-07-23T12:02:41;1.60;;;0.90;;
55641;SDS011;41509;53.108;6.100;2022-07-23T12:05:11;2.28;;;0.82;;
55641;SDS011;41509;53.108;6.100;2022-07-23T12:07:40;3.92;;;1.00;;
55641;SDS011;41509;53.108;6.100;2022-07-23T12:10:15;1.63;;;0.90;;
55641;SDS011;41509;53.108;6.100;2022-07-23T12:12:45;3.20;;;1.15;;
55641;SDS011;41509;53.108;6.100;2022-07-23T12:15:14;2.05;;;0.70;;
55641;SDS011;41509;53.108;6.100;2022-07-23T12:17:41;2.13;;;0.73;;
55641;SDS011;41509;53.108;6.100;2022-07-23T12:20:10;1.15;;;0.68;;
55641;SDS011;41509;53.108;6.100;2022-07-23T12:22:44;1.75;;;0.90;;
55641;SDS011;41509;53.108;6.100;2022-07-23T12:25:14;1.40;;;0.70;;
55641;SDS011;41509;53.108;6.100;2022-07-23T12:27:42;2.22;;;0.85;;
55641;SDS011;41509;53.108;6.100;2022-07-23T12:30:19;1.20;;;0.70;;
55641;SDS011;41509;53.108;6.100;2022-07-23T12:32:47;1.17;;;0.60;;
55641;SDS011;41509;53.108;6.100;2022-07-23T12:35:14;1.58;;;0.80;;
55641;SDS011;41509;53.108;6.100;2022-07-23T12:42:52;3.03;;;0.75;;
55641;SDS011;41509;53.108;6.100;2022-07-23T12:45:50;2.08;;;0.90;;
55641;SDS011;41509;53.108;6.100;2022-07-23T12:48:36;1.88;;;0.70;;
55641;SDS011;41509;53.108;6.100;2022-07-23T12:51:04;1.75;;;0.80;;
55641;SDS011;41509;53.108;6.100;2022-07-23T12:53:38;1.85;;;0.80;;
55641;SDS011;41509;53.108;6.100;2022-07-23T12:56:18;2.13;;;0.88;;
55641;SDS011;41509;53.108;6.100;2022-07-23T13:01:35;1.88;;;0.93;;
55641;SDS011;41509;53.108;6.100;2022-07-23T13:06:34;1.50;;;0.73;;
55641;SDS011;41509;53.108;6.100;2022-07-23T13:09:00;1.98;;;0.77;;
55641;SDS011;41509;53.108;6.100;2022-07-23T13:11:27;2.25;;;0.70;;
55641;SDS011;41509;53.108;6.100;2022-07-23T13:16:18;2.95;;;0.68;;
55641;SDS011;41509;53.108;6.100;2022-07-23T13:21:09;0.77;;;0.50;;
55641;SDS011;41509;53.108;6.100;2022-07-23T13:23:35;3.15;;;0.63;;
55641;SDS011;41509;53.108;6.100;2022-07-23T13:28:27;1.27;;;0.80;;
55641;SDS011;41509;53.108;6.100;2022-07-23T13:30:52;1.42;;;0.90;;
55641;SDS011;41509;53.108;6.100;2022-07-23T13:33:19;1.85;;;0.88;;
55641;SDS011;41509;53.108;6.100;2022-07-23T13:35:46;1.42;;;0.80;;
55641;SDS011;41509;53.108;6.100;2022-07-23T13:38:12;3.20;;;1.40;;
55641;SDS011;41509;53.108;6.100;2022-07-23T13:43:06;1.30;;;0.77;;
55641;SDS011;41509;53.108;6.100;2022-07-23T13:45:32;2.22;;;0.80;;
55641;SDS011;41509;53.108;6.100;2022-07-23T13:47:58;2.28;;;1.00;;
55641;SDS011;41509;53.108;6.100;2022-07-23T13:52:50;6.45;;;1.02;;
55641;SDS011;41509;53.108;6.100;2022-07-23T13:57:42;1.70;;;0.90;;
55641;SDS011;41509;53.108;6.100;2022-07-23T14:00:08;1.20;;;0.70;;
55641;SDS011;41509;53.108;6.100;2022-07-23T14:02:38;1.10;;;0.70;;
55641;SDS011;41509;53.108;6.100;2022-07-23T14:05:06;0.85;;;0.43;;
55641;SDS011;41509;53.108;6.100;2022-07-23T14:07:34;1.42;;;0.70;;
55641;SDS011;41509;53.108;6.100;2022-07-23T14:10:01;1.00;;;0.73;;
55641;SDS011;41509;53.108;6.100;2022-07-23T14:12:28;1.63;;;0.70;;
55641;SDS011;41509;53.108;6.100;2022-07-23T14:17:20;2.20;;;0.80;;
55641;SDS011;41509;53.108;6.100;2022-07-23T14:22:11;1.30;;;0.80;;
55641;SDS011;41509;53.108;6.100;2022-07-23T14:27:02;1.25;;;0.80;;
55641;SDS011;41509;53.108;6.100;2022-07-23T14:29:29;2.15;;;0.47;;
55641;SDS011;41509;53.108;6.100;2022-07-23T14:34:22;1.43;;;0.63;;
55641;SDS011;41509;53.108;6.100;2022-07-23T14:39:13;2.53;;;0.70;;
55641;SDS011;41509;53.108;6.100;2022-07-23T14:44:04;1.20;;;0.70;;
55641;SDS011;41509;53.108;6.100;2022-07-23T14:48:56;1.02;;;0.65;;
55641;SDS011;41509;53.108;6.100;2022-07-23T14:53:47;1.35;;;0.68;;
55641;SDS011;41509;53.108;6.100;2022-07-23T14:58:39;1.75;;;1.00;;
55641;SDS011;41509;53.108;6.100;2022-07-23T15:03:30;2.20;;;0.93;;
55641;SDS011;41509;53.108;6.100;2022-07-23T15:08:22;3.20;;;0.98;;
55641;SDS011;41509;53.108;6.100;2022-07-23T15:10:47;1.63;;;0.95;;
55641;SDS011;41509;53.108;6.100;2022-07-23T15:13:13;0.98;;;0.63;;
55641;SDS011;41509;53.108;6.100;2022-07-23T15:18:04;1.73;;;1.05;;
55641;SDS011;41509;53.108;6.100;2022-07-23T15:22:56;2.40;;;1.02;;
55641;SDS011;41509;53.108;6.100;2022-07-23T15:25:22;1.42;;;0.90;;
55641;SDS011;41509;53.108;6.100;2022-07-23T15:27:48;5.43;;;1.67;;
55641;SDS011;41509;53.108;6.100;2022-07-23T15:30:14;2.00;;;1.10;;
55641;SDS011;41509;53.108;6.100;2022-07-23T15:32:40;2.42;;;0.93;;
55641;SDS011;41509;53.108;6.100;2022-07-23T15:35:06;1.70;;;0.80;;
55641;SDS011;41509;53.108;6.100;2022-07-23T15:37:33;2.22;;;1.27;;
55641;SDS011;41509;53.108;6.100;2022-07-23T15:39:59;1.48;;;1.17;;
55641;SDS011;41509;53.108;6.100;2022-07-23T15:42:25;2.20;;;1.30;;
55641;SDS011;41509;53.108;6.100;2022-07-23T15:44:50;1.52;;;0.90;;
55641;SDS011;41509;53.108;6.100;2022-07-23T15:49:42;3.97;;;1.23;;
55641;SDS011;41509;53.108;6.100;2022-07-23T15:52:09;1.95;;;1.00;;
55641;SDS011;41509;53.108;6.100;2022-07-23T15:54:35;2.55;;;1.52;;
55641;SDS011;41509;53.108;6.100;2022-07-23T15:57:02;3.92;;;1.30;;
55641;SDS011;41509;53.108;6.100;2022-07-23T15:59:28;2.10;;;1.02;;
55641;SDS011;41509;53.108;6.100;2022-07-23T16:01:54;1.65;;;1.00;;
55641;SDS011;41509;53.108;6.100;2022-07-23T16:04:22;3.72;;;1.30;;
55641;SDS011;41509;53.108;6.100;2022-07-23T16:06:47;3.10;;;0.88;;
55641;SDS011;41509;53.108;6.100;2022-07-23T16:09:13;2.13;;;0.90;;
55641;SDS011;41509;53.108;6.100;2022-07-23T16:11:39;2.60;;;1.08;;
55641;SDS011;41509;53.108;6.100;2022-07-23T16:16:30;2.38;;;1.02;;
55641;SDS011;41509;53.108;6.100;2022-07-23T16:18:56;3.78;;;1.58;;
55641;SDS011;41509;53.108;6.100;2022-07-23T16:21:22;2.88;;;1.02;;
55641;SDS011;41509;53.108;6.100;2022-07-23T16:23:48;2.17;;;1.00;;
55641;SDS011;41509;53.108;6.100;2022-07-23T16:26:14;1.85;;;1.10;;
55641;SDS011;41509;53.108;6.100;2022-07-23T16:28:42;2.97;;;1.10;;
55641;SDS011;41509;53.108;6.100;2022-07-23T16:31:09;1.92;;;0.85;;
55641;SDS011;41509;53.108;6.100;2022-07-23T16:33:35;2.25;;;1.08;;
55641;SDS011;41509;53.108;6.100;2022-07-23T16:36:02;2.28;;;1.05;;
55641;SDS011;41509;53.108;6.100;2022-07-23T16:38:29;2.85;;;1.30;;
55641;SDS011;41509;53.108;6.100;2022-07-23T16:40:54;2.20;;;0.98;;
55641;SDS011;41509;53.108;6.100;2022-07-23T16:43:21;2.53;;;1.10;;
55641;SDS011;41509;53.108;6.100;2022-07-23T16:45:46;2.47;;;1.38;;
55641;SDS011;41509;53.108;6.100;2022-07-23T16:48:15;1.73;;;1.10;;
55641;SDS011;41509;53.108;6.100;2022-07-23T16:50:41;2.03;;;1.10;;
55641;SDS011;41509;53.108;6.100;2022-07-23T16:53:06;1.83;;;1.00;;
55641;SDS011;41509;53.108;6.100;2022-07-23T16:55:32;2.90;;;1.08;;
55641;SDS011;41509;53.108;6.100;2022-07-23T16:57:58;4.93;;;1.20;;
55641;SDS011;41509;53.108;6.100;2022-07-23T17:00:23;2.35;;;1.00;;
55641;SDS011;41509;53.108;6.100;2022-07-23T17:02:49;1.90;;;1.05;;
55641;SDS011;41509;53.108;6.100;2022-07-23T17:07:40;1.60;;;1.02;;
55641;SDS011;41509;53.108;6.100;2022-07-23T17:10:06;2.60;;;1.33;;
55641;SDS011;41509;53.108;6.100;2022-07-23T17:12:32;2.83;;;1.20;;
55641;SDS011;41509;53.108;6.100;2022-07-23T17:14:58;2.85;;;0.88;;
55641;SDS011;41509;53.108;6.100;2022-07-23T17:17:24;2.00;;;1.10;;
55641;SDS011;41509;53.108;6.100;2022-07-23T17:19:50;2.17;;;1.23;;
55641;SDS011;41509;53.108;6.100;2022-07-23T17:24:41;2.25;;;1.05;;